This is the latest recevied weather packets stored in our database for station/object YN1JLX-13. If no packets are shown the sender has not sent any weather packets the latest 10 day(s).
| Time | Temp. | Humidity | Pressure | Rain* | Wind** | Luminosity | Snow |
|---|---|---|---|---|---|---|---|
| 1788160336 | 66° F | 80% | 759.8 mmHg | 0 in | - | - | - |
| 1788159735 | 64° F | 80% | 759.8 mmHg | 0 in | - | - | - |
| 1788158535 | 65° F | 81% | 759.8 mmHg | 0 in | - | - | - |
| 1788157934 | 66° F | 83% | 759.8 mmHg | 0 in | - | - | - |
| 1788157334 | 66° F | 83% | 759.8 mmHg | 0 in | - | - | - |
| 1788156733 | 66° F | 83% | 759.8 mmHg | 0 in | - | - | - |
| 1788156133 | 68° F | 83% | 759.8 mmHg | 0 in | - | - | - |
| 1788155533 | 67° F | 83% | 759.8 mmHg | 0 in | - | - | - |
| 1788154933 | 69° F | 83% | 759.8 mmHg | 0 in | - | - | - |
| 1788154333 | 68° F | 83% | 759.8 mmHg | 0 in | - | - | - |
| 1788153732 | 70° F | 83% | 759.8 mmHg | 0 in | - | - | - |
| 1788153132 | 66° F | 66% | 759.8 mmHg | 0 in | - | - | - |
| 1788152532 | 67° F | 68% | 759.8 mmHg | 0 in | - | - | - |
| 1788151931 | 66° F | 65% | 759.8 mmHg | 0 in | - | - | - |
| 1788151331 | 66° F | 65% | 759.8 mmHg | 0 in | - | - | - |
| 1788150731 | 67° F | 65% | 759.8 mmHg | 0 in | - | - | - |
| 1788150131 | 67° F | 65% | 759.8 mmHg | 0 in | - | - | - |
| 1788149530 | 67° F | 63% | 759.8 mmHg | 0 in | - | - | - |
| 1788148929 | 67° F | 63% | 759.8 mmHg | 0 in | - | - | - |
| 1788148329 | 69° F | 63% | 759.8 mmHg | 0 in | - | - | - |
| 1788147728 | 68° F | 63% | 759.8 mmHg | 0 in | - | - | - |
| 1788147128 | 70° F | 63% | 759.8 mmHg | 0 in | - | - | - |
| 1788146528 | 72° F | 63% | 759.1 mmHg | 0 in | - | - | - |
| 1788145927 | 70° F | 62% | 759.1 mmHg | 0 in | - | - | - |
| 1788145327 | 72° F | 62% | 759.1 mmHg | 0 in | - | - | - |
* Rain latest hour (hover to see other rain measurements)
** Current wind speed in m/s (hover to see current wind gust speed)